Sunday, November 18, 2018, 3:19 PM GMT
Back to Local

CYQM, Moncton, N. B.

Location: , , Canada Lat: 46.117
Local Time: 3:19 PM GMT (15:19 GMT) Lon: -64.683
Time Zone: GMT Elev: 232 ft

Show me the last for .
Show Decoded

2018-11-18 15:00 METAR CYQM 181500Z 25010KT 15SM FEW030 FEW260 M04/M09 A3028 RMK SC1CI1 SC TR CI
                 TR SLP259 =
2018-11-18 14:00 METAR CYQM 181400Z 25007KT 15SM FEW030 FEW260 M06/M10 A3026 RMK SC1CI1 SC TR CI
                 TR SLP255 =
2018-11-18 13:00 METAR CYQM 181300Z 22009KT 15SM FEW030 FEW260 M08/M10 A3025 RMK SC1CI1 SC TR CI
                 TR SLP251 =
2018-11-18 12:00 METAR CYQM 181200Z 23007KT 15SM FEW030 FEW260 M09/M10 A3023 RMK SC1CI1 FROIN SC
                 TR CI TR SLP242 =
2018-11-18 11:00 METAR CYQM 181100Z 23008KT 15SM FEW030 FEW260 M09/M10 A3019 RMK SC1CI1 FROIN SC
                 TR CI TR SLP230 =
2018-11-18 10:00 METAR CYQM 181000Z 22008KT 15SM SKC M08/M09 A3015 RMK SLP217 =
2018-11-18 09:00 METAR CYQM 180900Z 23008KT 15SM SKC M06/M08 A3012 RMK WND ESTD SLP207 =
2018-11-18 08:00 METAR CYQM 180800Z 25011KT 15SM SKC M05/M07 A3009 RMK SLP195 =
2018-11-18 07:00 METAR CYQM 180700Z 24009KT 15SM SKC M05/M06 A3006 RMK SLP185 =
2018-11-18 06:00 METAR CYQM 180600Z 24009KT 15SM FEW050 M04/M06 A3004 RMK SC2 SLP177 =
2018-11-18 05:00 METAR CYQM 180500Z 23009G34KT 15SM BKN051 M04/M05 A3002 RMK SC7 SLP173 =
2018-11-18 04:00 METAR CYQM 180400Z 23009KT 15SM FEW030 M04/M05 A3000 RMK SC1 SLP166 =
2018-11-18 03:00 METAR CYQM 180300Z 22009KT 15SM SKC M04/M05 A2999 RMK SLP161 =
2018-11-18 02:00 METAR CYQM 180200Z 23007KT 15SM FEW028 M03/M04 A2997 RMK SC1 SLP154 =
2018-11-18 01:00 METAR CYQM 180100Z 25006KT 15SM OVC028 M02/M04 A2995 RMK SC8 SLP148 =
2018-11-18 00:00 METAR CYQM 180000Z 21006KT 15SM OVC029 M03/M05 A2994 RMK SC8 SLP143 =
2018-11-17 23:00 METAR CYQM 172300Z 19005KT 15SM OVC035 M05/M06 A2993 RMK SC8 SLP140 =
2018-11-17 22:00 METAR CYQM 172200Z 24006KT 15SM FEW035 M04/M06 A2990 RMK SC1 SLP131 =
2018-11-17 21:00 METAR CYQM 172100Z 27015KT 15SM BKN024 BKN045 M03/M05 A2989 RMK SC6SC1 WND ESTD
                 SLP126 =
2018-11-17 20:00 METAR CYQM 172000Z CCA /////KT 15SM BKN022 M03/M05 A2985 RMK SC7 SLP115 =
2018-11-17 19:00 METAR CYQM 171900Z 25015KT 15SM BKN018 M02/M05 A2983 RMK SC7 SLP106 =
2018-11-17 18:00 METAR CYQM 171800Z 25013KT 15SM BKN017 M02/M05 A2982 RMK SC7 SLP102 =
2018-11-17 17:36 METAR CYQM 171736Z 25014G20KT 15SM BKN017 M02/M05 A2982 RMK SC7 SLP103 =
2018-11-17 17:00 METAR CYQM 171700Z 24016KT 15SM BKN014 M03/M05 A2980 RMK SC7 SLP098 =
2018-11-17 16:00 METAR CYQM 171600Z 25013KT 15SM BKN014 M03/M05 A2978 RMK SC7 SLP089 =
2018-11-17 15:34 METAR CYQM 171534Z 25013KT 15SM BKN012 M03/M05 A2977 RMK SC7 SLP085 =

Support USWX by starting your Amazon purchase here.